Flight Track Log - Related Links

Times and Time Zones

All times are in EDT time to prevent confusion due to time zone crossing. See the ASQ4633 flight status page for this flight to view local times or setup timezone preferences in your user account.

Time Position Orientation Groundspeed Altitude Reporting Facility
EDT Latitude Longitude Course Direction KTS MPH feet Rate Location/Type
Sun 08:03:31 PM 40.8172 -111.9786 97° East 185 213 5,000  Level Salt Lake Center
Sun 08:04:01 PM 40.8419 -111.9844 350° North 189 217 5,800 1,425 Climbing Salt Lake Center
Sun 08:04:51 PM 40.8836 -111.9872 357° North 210 242 6,900 1,875 Climbing Salt Lake Center
Sun 08:05:53 PM 40.9622 -111.9981 354° North 233 268 9,300 2,098 Climbing Salt Lake Center
Sun 08:06:54 PM 41.0164 -111.9497 34° Northeast 264 304 11,200 1,610 Climbing Salt Lake Center
Sun 08:07:56 PM 41.0022 -111.8528 101° East 280 322 12,600 1,306 Climbing Salt Lake Center
Sun 08:08:58 PM 40.9817 -111.7422 104° East 320 368 13,900 1,220 Climbing Salt Lake Center
Sun 08:09:00 PM 40.6437 -110.5357 97° East  Level Estimated
Sun 08:09:59 PM 40.9669 -111.6175 99° East 347 399 15,100  Level Salt Lake Center
Sun 08:11:01 PM 40.9531 -111.4533 96° East 376 433 16,400 1,113 Climbing Salt Lake Center
Sun 08:12:03 PM 40.9397 -111.3094 97° East 392 451 17,400 976 Climbing Salt Lake Center
Sun 08:13:04 PM 40.9269 -111.1600 96° East 406 467 18,400 1,024 Climbing Salt Lake Center
Sun 08:14:06 PM 40.9125 -111.0061 97° East 420 483 19,500 1,016 Climbing Salt Lake Center
Sun 08:15:08 PM 40.8986 -110.8500 97° East 427 491 20,500 976 Climbing Salt Lake Center
Sun 08:16:09 PM 40.8836 -110.6911 97° East 436 502 21,500 1,073 Climbing Salt Lake Center
Sun 08:17:11 PM 40.8672 -110.5025 96° East 439 505 22,700 1,016 Climbing Salt Lake Center
Sun 08:18:13 PM 40.8525 -110.3492 97° East 440 506 23,600 927 Climbing Salt Lake Center
Sun 08:19:14 PM 40.8367 -110.1958 98° East 443 510 24,600 1,024 Climbing Salt Lake Center
Sun 08:20:16 PM 40.8178 -110.0144 98° East 445 512 25,700 1,016 Climbing Salt Lake Center
Sun 08:21:18 PM 40.8033 -109.8569 97° East 449 517 26,700 1,024 Climbing Salt Lake Center
Sun 08:22:19 PM 40.7856 -109.6733 97° East 452 520 27,800 1,024 Climbing Salt Lake Center
Sun 08:23:21 PM 40.7692 -109.5167 98° East 450 518 28,800 1,016 Climbing Salt Lake Center
Sun 08:24:23 PM 40.7503 -109.3322 98° East 454 522 29,900 1,073 Climbing Salt Lake Center
Sun 08:25:24 PM 40.7336 -109.1806 98° East 453 521 31,000 1,189 Climbing Salt Lake Center
Sun 08:26:09 PM 40.7194 -109.0408 98° East 456 525 32,000 1,121 Climbing Denver Center
Sun 08:27:11 PM 40.7028 -108.8825 98° East 454 522 33,000 835 Climbing Denver Center
Sun 08:27:28 PM 40.6975 -108.8400 99° East 456 525 33,100  Climbing Salt Lake Center
Sun 08:28:29 PM 40.6764 -108.6464 98° East 478 550 33,000  Descending Salt Lake Center
Sun 08:29:15 PM 40.6628 -108.5181 98° East 488 562 33,100  Climbing Denver Center
Sun 08:30:16 PM 40.6431 -108.3458 99° East 495 570 33,000 -49 Descending Denver Center
Sun 08:31:18 PM 40.6200 -108.1425 98° East 500 575 33,000  Level Denver Center
Sun 08:32:20 PM 40.6003 -107.9708 99° East 496 571 33,000  Level Denver Center
Sun 08:33:22 PM 40.5761 -107.7736 99° East 491 565 33,000  Level Denver Center
Sun 08:34:24 PM 40.5569 -107.6031 98° East 490 564 33,000 49 Level Denver Center
Sun 08:35:25 PM 40.5358 -107.4314 99° East 495 570 33,100  Climbing Denver Center
Sun 08:36:27 PM 40.5172 -107.2292 97° East 499 574 33,000 -48 Descending Denver Center
Sun 08:37:29 PM 40.5053 -107.0653 95° East 502 578 33,000  Level Denver Center
Sun 08:38:31 PM 40.4894 -106.8861 97° East 497 572 33,000 48 Level Denver Center
Sun 08:39:33 PM 40.4706 -106.6728 97° East 490 564 33,100  Climbing Denver Center
Sun 08:40:34 PM 40.4547 -106.4878 96° East 488 562 33,000 -195 Descending Denver Center
Sun 08:41:36 PM 40.4400 -106.3183 96° East 488 562 32,700 -1,355 Descending Denver Center
Sun 08:42:38 PM 40.4242 -106.1428 97° East 488 562 30,200 -2,927 Descending Denver Center
Sun 08:43:39 PM 40.4086 -105.9700 97° East 479 551 26,700 -3,220 Descending Denver Center
Sun 08:44:41 PM 40.3925 -105.8006 97° East 471 542 23,600 -2,758 Descending Denver Center
Sun 08:45:43 PM 40.3767 -105.6367 97° East 457 526 21,000 -2,732 Descending Denver Center
Sun 08:46:44 PM 40.3586 -105.4583 98° East 440 506 18,000 -2,341 Descending Denver Center
Sun 08:47:46 PM 40.3381 -105.3081 100° East 383 441 16,200 -1,935 Descending Denver Center
Sun 08:48:48 PM 40.3225 -105.1850 99° East 347 399 14,000 -1,561 Descending Denver Center
Sun 08:49:49 PM 40.2914 -105.0753 110° East 325 374 13,000 -488 Descending Denver Center
Sun 08:50:51 PM 40.2558 -104.9567 111° Southeast 325 374 13,000 -145 Level Denver Center
Sun 08:51:53 PM 40.2131 -104.8542 119° Southeast 325 374 12,700 -1,065 Descending Denver Center
Sun 08:52:55 PM 40.1519 -104.7767 136° Southeast 313 360 10,800 -1,756 Descending Denver Center
Sun 08:53:56 PM 40.0703 -104.7228 153° Southeast 306 352 9,100 -1,707 Descending Denver Center
Sun 08:54:58 PM 40.0025 -104.6947 162° South 262 302 7,300 -1,355 Descending Denver Center
Sun 08:56:00 PM 39.9472 -104.6958 181° South 198 228 6,300 -871 Descending Denver Center
Sun 08:57:02 PM 39.9017 -104.6961 180° South 158 182 5,500 -774 Descending Denver Center

Login

Don't have an account? Register now (free) for customized features, flight alerts, and more!